createdAt,value
2018-07-14T00:00:45.290Z,8.50
2018-07-14T00:03:13.452Z,8.17
2018-07-14T00:05:41.644Z,8.90
2018-07-14T00:08:09.927Z,8.23
2018-07-14T00:10:38.241Z,8.43
2018-07-14T00:13:06.448Z,8.67
2018-07-14T00:15:34.638Z,13.50
2018-07-14T00:18:02.879Z,8.30
2018-07-14T00:20:31.064Z,9.03
2018-07-14T00:22:59.529Z,7.97
2018-07-14T00:25:33.129Z,8.87
2018-07-14T00:28:01.345Z,8.70
2018-07-14T00:30:29.541Z,8.73
2018-07-14T00:32:57.732Z,7.80
2018-07-14T00:35:25.901Z,8.43
2018-07-14T00:37:54.083Z,7.93
2018-07-14T00:40:22.371Z,8.07
2018-07-14T00:42:50.759Z,7.50
2018-07-14T00:45:19.089Z,7.77
2018-07-14T00:47:48.208Z,8.17
2018-07-14T00:50:16.355Z,8.60
2018-07-14T00:52:44.642Z,7.90
2018-07-14T00:55:12.962Z,8.00
2018-07-14T00:57:41.329Z,8.77
2018-07-14T01:00:09.517Z,8.23
2018-07-14T01:02:37.701Z,7.97
2018-07-14T01:05:06.299Z,8.63
2018-07-14T01:07:34.489Z,8.13
2018-07-14T01:10:02.644Z,8.53
2018-07-14T01:12:31.104Z,11.30
2018-07-14T01:14:59.484Z,9.87
2018-07-14T01:17:27.733Z,8.63
2018-07-14T01:19:56.107Z,8.83
2018-07-14T01:22:24.337Z,9.13
2018-07-14T01:24:52.567Z,9.03
2018-07-14T01:27:20.835Z,10.07
2018-07-14T01:29:49.082Z,9.53
2018-07-14T01:32:17.379Z,9.60
2018-07-14T01:34:45.644Z,10.43
2018-07-14T01:37:13.853Z,10.50
2018-07-14T01:39:42.007Z,9.50
2018-07-14T01:42:10.305Z,10.17
2018-07-14T01:44:38.545Z,9.73
2018-07-14T01:47:06.866Z,16.97
2018-07-14T01:49:35.091Z,10.43
2018-07-14T01:52:03.273Z,10.23
2018-07-14T01:54:31.553Z,9.93
2018-07-14T01:56:59.798Z,10.50
2018-07-14T01:59:28.017Z,14.10
2018-07-14T02:01:56.268Z,10.83
2018-07-14T02:04:24.536Z,11.07
2018-07-14T02:06:52.801Z,10.07
2018-07-14T02:09:21.211Z,12.90
2018-07-14T02:11:49.358Z,10.97
2018-07-14T02:14:17.529Z,10.70
2018-07-14T02:16:45.747Z,10.07
2018-07-14T02:19:13.953Z,11.53
2018-07-14T02:21:42.186Z,11.90
2018-07-14T02:24:10.433Z,10.57
2018-07-14T02:26:38.664Z,10.70
2018-07-14T02:29:06.837Z,10.93
2018-07-14T02:31:35.014Z,11.60
2018-07-14T02:34:03.158Z,10.77
2018-07-14T02:36:31.318Z,10.90
2018-07-14T02:38:59.496Z,11.70
2018-07-14T02:41:27.667Z,15.07
2018-07-14T02:43:55.830Z,11.40
2018-07-14T02:46:23.994Z,11.83
2018-07-14T02:48:52.176Z,13.10
2018-07-14T02:51:20.348Z,11.53
2018-07-14T02:53:48.628Z,11.73
2018-07-14T02:56:16.919Z,11.53
2018-07-14T02:58:45.068Z,11.33
2018-07-14T03:01:13.254Z,11.90
2018-07-14T03:03:41.450Z,12.20
2018-07-14T03:06:09.932Z,12.40
2018-07-14T03:08:38.141Z,12.70
2018-07-14T03:11:06.268Z,11.77
2018-07-14T03:13:34.440Z,11.63
2018-07-14T03:16:02.598Z,11.77
2018-07-14T03:18:30.809Z,11.50
2018-07-14T03:20:59.060Z,12.20
2018-07-14T03:23:27.257Z,12.97
2018-07-14T03:25:55.443Z,12.07
2018-07-14T03:28:23.712Z,12.83
2018-07-14T03:30:51.914Z,12.23
2018-07-14T03:33:20.232Z,13.47
2018-07-14T03:35:48.543Z,12.23
2018-07-14T03:38:16.922Z,17.50
2018-07-14T03:40:45.239Z,12.33
2018-07-14T03:43:13.443Z,12.10
2018-07-14T03:45:41.658Z,13.50
2018-07-14T03:48:09.885Z,14.27
2018-07-14T03:50:38.089Z,12.60
2018-07-14T03:53:06.336Z,12.53
2018-07-14T03:55:34.533Z,13.57
2018-07-14T03:58:02.922Z,16.27
2018-07-14T04:00:31.195Z,13.10
2018-07-14T04:02:59.419Z,13.70
2018-07-14T04:05:27.684Z,12.30
2018-07-14T04:07:55.927Z,12.70
2018-07-14T04:10:24.236Z,12.27
2018-07-14T04:12:52.365Z,12.63
2018-07-14T04:15:20.649Z,12.93
2018-07-14T04:17:53.422Z,12.37
2018-07-14T04:20:21.708Z,12.27
2018-07-14T04:22:49.851Z,11.87
2018-07-14T04:25:17.953Z,11.17
2018-07-14T04:27:46.668Z,10.97
2018-07-14T04:30:15.111Z,12.50
2018-07-14T04:32:43.561Z,10.47
2018-07-14T04:35:11.731Z,10.63
2018-07-14T04:37:39.891Z,11.57
2018-07-14T04:40:09.623Z,10.87
2018-07-14T04:42:37.893Z,10.43
2018-07-14T04:45:06.092Z,12.30
2018-07-14T04:47:34.249Z,10.13
2018-07-14T04:50:02.364Z,9.17
2018-07-14T04:52:30.624Z,9.73
2018-07-14T04:54:58.867Z,9.33
2018-07-14T04:57:27.073Z,9.07
2018-07-14T04:59:55.253Z,9.50
2018-07-14T05:02:23.523Z,8.95
2018-07-14T05:04:51.763Z,8.88
2018-07-14T05:07:20.077Z,8.68
2018-07-14T05:09:48.456Z,7.78
2018-07-14T05:12:16.633Z,8.13
2018-07-14T05:14:44.828Z,8.85
2018-07-14T05:17:13.041Z,8.75
2018-07-14T05:19:41.259Z,9.23
2018-07-14T05:22:09.512Z,9.30
2018-07-14T05:24:37.677Z,8.85
2018-07-14T05:27:06.028Z,8.65
2018-07-14T05:29:34.299Z,8.63
2018-07-14T05:32:02.453Z,9.60
2018-07-14T05:34:30.647Z,11.10
2018-07-14T05:36:58.774Z,8.55
2018-07-14T05:39:27.150Z,8.08
2018-07-14T05:41:55.323Z,9.55
2018-07-14T05:44:23.453Z,9.73
2018-07-14T05:46:51.733Z,9.00
2018-07-14T05:49:20.324Z,8.88
2018-07-14T05:51:48.489Z,8.65
2018-07-14T05:54:16.637Z,7.67
2018-07-14T05:56:44.769Z,7.97
2018-07-14T05:59:13.260Z,7.90
2018-07-14T06:01:41.822Z,8.85
2018-07-14T06:04:10.152Z,8.98
2018-07-14T06:06:38.473Z,6.80
2018-07-14T06:09:07.821Z,7.33
2018-07-14T06:11:36.021Z,11.80
2018-07-14T06:14:04.347Z,7.33
2018-07-14T06:16:32.524Z,10.48
2018-07-14T06:19:00.801Z,9.65
2018-07-14T06:21:29.035Z,7.47
2018-07-14T06:23:57.304Z,6.65
2018-07-14T06:26:25.477Z,7.00
2018-07-14T06:28:53.637Z,7.40
2018-07-14T06:31:21.869Z,6.80
2018-07-14T06:33:50.155Z,7.85
2018-07-14T06:36:18.641Z,6.85
2018-07-14T06:38:46.853Z,7.40
2018-07-14T06:41:14.999Z,10.35
2018-07-14T06:43:43.293Z,8.60
2018-07-14T06:46:11.534Z,11.33
2018-07-14T06:48:39.672Z,12.68
2018-07-14T06:51:07.865Z,11.88
2018-07-14T06:53:36.159Z,7.28
2018-07-14T06:56:04.483Z,9.35
2018-07-14T06:58:32.679Z,7.95
2018-07-14T07:01:00.949Z,7.87
2018-07-14T07:03:29.263Z,10.60
2018-07-14T07:05:57.373Z,9.00
2018-07-14T07:08:25.625Z,9.28
2018-07-14T07:10:54.113Z,8.85
2018-07-14T07:13:22.340Z,8.68
2018-07-14T07:15:50.655Z,9.23
2018-07-14T07:18:18.782Z,7.42
2018-07-14T07:20:47.032Z,8.63
2018-07-14T07:23:15.215Z,9.35
2018-07-14T07:25:43.484Z,10.88
2018-07-14T07:28:11.740Z,10.70
2018-07-14T07:30:39.989Z,9.08
2018-07-14T07:33:08.160Z,8.28
2018-07-14T07:35:36.452Z,11.33
2018-07-14T07:38:04.728Z,7.75
2018-07-14T07:40:32.979Z,6.95
2018-07-14T07:43:01.303Z,8.45
2018-07-14T07:45:29.752Z,7.15
2018-07-14T07:47:57.937Z,7.15
2018-07-14T07:50:26.144Z,6.78
2018-07-14T07:52:54.337Z,6.55
2018-07-14T07:55:22.510Z,6.80
2018-07-14T07:57:50.645Z,6.50
2018-07-14T08:00:18.828Z,7.50
2018-07-14T08:02:47.033Z,7.33
2018-07-14T08:05:15.242Z,7.42
2018-07-14T08:07:43.678Z,6.62
2018-07-14T08:10:11.885Z,6.25
2018-07-14T08:12:40.165Z,7.40
2018-07-14T08:15:09.073Z,7.92
2018-07-14T08:17:37.207Z,6.35
2018-07-14T08:20:05.484Z,6.25
2018-07-14T08:22:33.687Z,6.45
2018-07-14T08:25:02.049Z,6.17
2018-07-14T08:27:30.278Z,9.48
2018-07-14T08:29:58.681Z,9.40
2018-07-14T08:32:26.897Z,7.60
2018-07-14T08:34:55.031Z,6.95
2018-07-14T08:37:23.254Z,7.12
2018-07-14T08:39:51.634Z,7.42
2018-07-14T08:42:19.896Z,7.25
2018-07-14T08:44:48.038Z,6.30
2018-07-14T08:47:16.359Z,6.80
2018-07-14T08:49:45.412Z,8.03
2018-07-14T08:52:14.803Z,7.85
2018-07-14T08:54:43.051Z,7.97
2018-07-14T08:57:11.352Z,7.78
2018-07-14T08:59:39.651Z,14.05
2018-07-14T09:02:07.855Z,13.15
2018-07-14T09:04:36.112Z,10.20
2018-07-14T09:07:04.414Z,8.98
2018-07-14T09:09:32.602Z,6.35
2018-07-14T09:12:01.233Z,8.78
2018-07-14T09:14:29.389Z,8.20
2018-07-14T09:16:57.557Z,9.58
2018-07-14T09:19:25.742Z,8.13
2018-07-14T09:21:53.923Z,6.87
2018-07-14T09:24:22.103Z,7.12
2018-07-14T09:26:50.338Z,6.58
2018-07-14T09:29:18.609Z,12.82
2018-07-14T09:31:46.787Z,8.03
2018-07-14T09:34:15.257Z,7.55
2018-07-14T09:36:43.474Z,6.70
2018-07-14T09:39:11.741Z,6.22
2018-07-14T09:41:39.955Z,7.80
2018-07-14T09:44:08.376Z,7.03
2018-07-14T09:46:37.427Z,10.03
2018-07-14T09:49:05.625Z,8.00
2018-07-14T09:51:33.941Z,12.75
2018-07-14T09:54:02.151Z,6.80
2018-07-14T09:56:30.589Z,9.03
2018-07-14T09:58:58.774Z,9.15
2018-07-14T10:01:27.135Z,6.83
2018-07-14T10:03:55.287Z,7.87
2018-07-14T10:06:23.494Z,6.70
2018-07-14T10:08:51.665Z,9.93
2018-07-14T10:11:19.955Z,6.47
2018-07-14T10:13:48.123Z,6.10
2018-07-14T10:16:16.297Z,6.80
2018-07-14T10:18:44.487Z,6.63
2018-07-14T10:21:13.055Z,5.87
2018-07-14T10:23:41.254Z,8.13
2018-07-14T10:26:09.570Z,11.77
2018-07-14T10:28:37.735Z,8.30
2018-07-14T10:31:06.185Z,5.70
2018-07-14T10:33:34.372Z,5.73
2018-07-14T10:36:02.476Z,6.57
2018-07-14T10:38:30.870Z,7.13
2018-07-14T10:40:58.960Z,6.23
2018-07-14T10:43:27.232Z,6.87
2018-07-14T10:45:55.407Z,6.77
2018-07-14T10:48:23.618Z,7.10
2018-07-14T10:50:51.947Z,8.03
2018-07-14T10:53:20.167Z,11.13
2018-07-14T10:55:48.421Z,8.43
2018-07-14T10:58:16.652Z,6.30
2018-07-14T11:00:44.853Z,7.23
2018-07-14T11:03:13.241Z,7.43
2018-07-14T11:05:41.431Z,6.10
2018-07-14T11:08:09.636Z,6.70
2018-07-14T11:10:37.805Z,6.53
2018-07-14T11:13:06.093Z,5.83
2018-07-14T11:15:34.366Z,7.03
2018-07-14T11:18:02.697Z,5.90
2018-07-14T11:20:31.008Z,6.37
2018-07-14T11:22:59.436Z,6.23
2018-07-14T11:25:27.778Z,7.40
2018-07-14T11:27:55.985Z,8.00
2018-07-14T11:30:24.222Z,6.57
2018-07-14T11:32:52.480Z,7.00
2018-07-14T11:35:20.706Z,6.30
2018-07-14T11:37:49.134Z,5.43
2018-07-14T11:40:18.026Z,7.43
2018-07-14T11:42:46.203Z,6.30
2018-07-14T11:45:14.680Z,7.10
2018-07-14T11:47:43.013Z,7.83
2018-07-14T11:50:11.152Z,7.10
2018-07-14T11:52:39.306Z,6.00
2018-07-14T11:55:07.497Z,7.97
2018-07-14T11:57:35.726Z,5.87
2018-07-14T12:00:05.288Z,6.00
2018-07-14T12:02:33.501Z,6.93
2018-07-14T12:05:01.721Z,6.87
2018-07-14T12:07:29.862Z,5.53
2018-07-14T12:09:58.016Z,6.77
2018-07-14T12:12:26.234Z,5.80
2018-07-14T12:14:54.458Z,6.83
2018-07-14T12:17:22.610Z,7.40
2018-07-14T12:19:50.781Z,7.00
2018-07-14T12:22:18.970Z,8.77
2018-07-14T12:24:47.232Z,7.70
2018-07-14T12:27:15.474Z,6.33
2018-07-14T12:29:43.687Z,6.13
2018-07-14T12:32:12.035Z,6.00
2018-07-14T12:34:40.279Z,7.00
2018-07-14T12:37:08.420Z,7.20
2018-07-14T12:39:36.661Z,10.90
2018-07-14T12:42:05.126Z,7.10
2018-07-14T12:44:34.029Z,6.20
2018-07-14T12:47:02.319Z,7.07
2018-07-14T12:49:30.480Z,8.27
2018-07-14T12:51:58.751Z,8.13
2018-07-14T12:54:27.125Z,6.47
2018-07-14T12:56:55.437Z,6.87
2018-07-14T12:59:23.623Z,7.87
2018-07-14T13:01:52.755Z,6.77
2018-07-14T13:04:21.000Z,6.10
2018-07-14T13:06:49.343Z,6.80
2018-07-14T13:09:17.746Z,7.47
2018-07-14T13:11:46.153Z,7.33
2018-07-14T13:14:14.495Z,7.40
2018-07-14T13:16:42.664Z,6.30
2018-07-14T13:19:10.878Z,8.00
2018-07-14T13:21:39.321Z,7.53
2018-07-14T13:24:07.721Z,8.40
2018-07-14T13:26:35.986Z,8.53
2018-07-14T13:29:04.278Z,6.90
2018-07-14T13:31:32.489Z,5.40
2018-07-14T13:34:00.666Z,5.50
2018-07-14T13:36:28.863Z,6.00
2018-07-14T13:38:57.024Z,8.03
2018-07-14T13:41:25.169Z,7.10
2018-07-14T13:43:53.399Z,6.73
2018-07-14T13:46:21.624Z,6.20
2018-07-14T13:48:49.841Z,7.80
2018-07-14T13:51:17.998Z,5.23
2018-07-14T13:53:47.229Z,5.00
2018-07-14T13:56:15.444Z,4.90
2018-07-14T13:58:43.601Z,5.07
2018-07-14T14:01:11.824Z,4.90
2018-07-14T14:03:39.999Z,5.73
2018-07-14T14:06:08.589Z,7.70
2018-07-14T14:08:36.943Z,4.87
2018-07-14T14:11:05.084Z,5.07
2018-07-14T14:13:33.412Z,5.33
2018-07-14T14:16:01.719Z,4.70
2018-07-14T14:18:29.935Z,4.63
2018-07-14T14:20:58.181Z,5.20
2018-07-14T14:23:26.431Z,4.80
2018-07-14T14:25:54.625Z,4.30
2018-07-14T14:28:22.765Z,4.60
2018-07-14T14:30:50.963Z,4.73
2018-07-14T14:33:19.131Z,4.93
2018-07-14T14:35:47.321Z,5.43
2018-07-14T14:38:15.513Z,5.13
2018-07-14T14:40:43.716Z,4.63
2018-07-14T14:43:11.975Z,4.70
2018-07-14T14:45:40.253Z,4.60
2018-07-14T14:48:08.430Z,4.00
2018-07-14T14:50:36.664Z,4.30
2018-07-14T14:53:05.097Z,4.50
2018-07-14T14:55:33.250Z,4.27
2018-07-14T14:58:01.442Z,4.00
2018-07-14T15:00:30.288Z,4.00
2018-07-14T15:02:58.399Z,4.40
2018-07-14T15:05:26.579Z,3.93
2018-07-14T15:07:54.749Z,4.43
2018-07-14T15:10:24.715Z,6.70
2018-07-14T15:12:52.909Z,4.07
2018-07-14T15:15:21.138Z,5.50
2018-07-14T15:17:49.291Z,3.90
2018-07-14T15:20:17.453Z,6.20
2018-07-14T15:22:45.751Z,5.87
2018-07-14T15:25:14.007Z,9.90
2018-07-14T15:27:43.078Z,7.63
2018-07-14T15:30:12.246Z,8.53
2018-07-14T15:32:40.522Z,4.03
2018-07-14T15:35:08.665Z,7.63
2018-07-14T15:37:36.850Z,6.50
2018-07-14T15:40:05.072Z,4.30
2018-07-14T15:42:34.249Z,4.93
2018-07-14T15:45:02.471Z,4.50
2018-07-14T15:47:30.686Z,5.47
2018-07-14T15:49:58.861Z,4.63
2018-07-14T15:52:27.121Z,4.47
2018-07-14T15:54:56.008Z,3.67
2018-07-14T15:57:24.253Z,6.50
2018-07-14T15:59:52.594Z,8.07
2018-07-14T16:02:21.420Z,5.80
2018-07-14T16:04:49.585Z,5.10
2018-07-14T16:07:17.826Z,4.57
2018-07-14T16:09:46.674Z,10.73
2018-07-14T16:12:14.922Z,7.27
2018-07-14T16:14:46.182Z,5.40
2018-07-14T16:17:14.352Z,10.07
2018-07-14T16:19:42.548Z,6.73
2018-07-14T16:22:10.822Z,4.33
2018-07-14T16:24:39.084Z,3.57
2018-07-14T16:27:07.346Z,3.57
2018-07-14T16:29:35.556Z,3.57
2018-07-14T16:32:03.766Z,4.03
2018-07-14T16:34:32.017Z,4.30
2018-07-14T16:37:00.177Z,4.67
2018-07-14T16:39:28.366Z,5.60
2018-07-14T16:41:56.656Z,6.30
2018-07-14T16:44:24.807Z,5.30
2018-07-14T16:46:53.058Z,4.00
2018-07-14T16:49:21.315Z,6.33
2018-07-14T16:51:49.577Z,6.03
2018-07-14T16:54:17.799Z,3.67
2018-07-14T16:56:47.181Z,4.60
2018-07-14T16:59:15.409Z,4.63
2018-07-14T17:01:43.615Z,8.10
2018-07-14T17:04:11.901Z,3.10
2018-07-14T17:06:40.188Z,5.57
2018-07-14T17:09:09.031Z,4.10
2018-07-14T17:11:37.263Z,3.33
2018-07-14T17:14:05.820Z,4.00
2018-07-14T17:16:33.987Z,3.50
2018-07-14T17:19:02.365Z,6.43
2018-07-14T17:21:30.580Z,5.27
2018-07-14T17:23:58.765Z,4.47
2018-07-14T17:26:27.337Z,3.80
2018-07-14T17:28:56.264Z,3.40
2018-07-14T17:31:27.207Z,3.47
2018-07-14T17:33:55.511Z,4.93
2018-07-14T17:36:23.704Z,5.70
2018-07-14T17:38:52.003Z,4.00
2018-07-14T17:41:20.285Z,5.27
2018-07-14T17:43:48.503Z,6.23
2018-07-14T17:46:16.703Z,3.70
2018-07-14T17:48:44.948Z,2.80
2018-07-14T17:51:13.257Z,3.13
2018-07-14T17:53:41.454Z,4.13
2018-07-14T17:56:10.026Z,4.30
2018-07-14T17:58:38.193Z,5.83
2018-07-14T18:01:06.519Z,5.17
2018-07-14T18:03:34.785Z,3.60
2018-07-14T18:06:03.041Z,3.57
2018-07-14T18:08:31.267Z,3.30
2018-07-14T18:10:59.405Z,9.50
2018-07-14T18:13:27.659Z,12.70
2018-07-14T18:15:55.900Z,5.97
2018-07-14T18:18:24.220Z,5.40
2018-07-14T18:20:52.466Z,5.87
2018-07-14T18:23:20.672Z,4.60
2018-07-14T18:25:48.926Z,4.20
2018-07-14T18:28:17.106Z,5.20
2018-07-14T18:30:45.481Z,4.43
2018-07-14T18:33:13.773Z,8.20
2018-07-14T18:35:42.039Z,10.97
2018-07-14T18:38:10.255Z,6.47
2018-07-14T18:40:38.460Z,7.53
2018-07-14T18:43:06.663Z,11.57
2018-07-14T18:45:34.835Z,7.27
2018-07-14T18:48:03.212Z,10.40
2018-07-14T18:50:31.456Z,10.23
2018-07-14T18:52:59.633Z,7.93
2018-07-14T18:55:27.839Z,13.30
2018-07-14T18:57:56.108Z,4.67
2018-07-14T19:00:24.460Z,6.47
2018-07-14T19:02:52.742Z,6.03
2018-07-14T19:05:20.883Z,4.53
2018-07-14T19:07:49.081Z,6.17
2018-07-14T19:10:17.307Z,9.50
2018-07-14T19:12:45.754Z,9.60
2018-07-14T19:15:14.908Z,3.43
2018-07-14T19:17:43.057Z,5.07
2018-07-14T19:20:11.221Z,3.70
2018-07-14T19:22:39.462Z,6.43
2018-07-14T19:25:07.738Z,3.30
2018-07-14T19:27:35.987Z,3.30
2018-07-14T19:30:04.320Z,4.93
2018-07-14T19:32:32.555Z,3.03
2018-07-14T19:35:00.744Z,4.00
2018-07-14T19:37:28.956Z,4.80
2018-07-14T19:39:57.221Z,6.30
2018-07-14T19:42:25.500Z,7.40
2018-07-14T19:44:53.826Z,3.47
2018-07-14T19:47:22.012Z,2.97
2018-07-14T19:49:50.448Z,3.27
2018-07-14T19:52:18.654Z,3.30
2018-07-14T19:54:47.000Z,4.40
2018-07-14T19:57:15.323Z,4.00
2018-07-14T19:59:43.641Z,3.17
2018-07-14T20:02:11.880Z,4.87
2018-07-14T20:04:40.358Z,2.83
2018-07-14T20:07:08.612Z,4.03
2018-07-14T20:09:36.761Z,3.10
2018-07-14T20:12:05.117Z,3.30
2018-07-14T20:14:33.284Z,4.10
2018-07-14T20:17:01.548Z,3.70
2018-07-14T20:19:29.779Z,3.83
2018-07-14T20:21:58.029Z,3.83
2018-07-14T20:24:27.438Z,3.97
2018-07-14T20:26:55.933Z,6.43
2018-07-14T20:29:24.702Z,4.97
2018-07-14T20:31:52.939Z,4.40
2018-07-14T20:34:21.174Z,3.30
2018-07-14T20:36:49.449Z,3.33
2018-07-14T20:39:17.654Z,3.60
2018-07-14T20:41:49.222Z,3.17
2018-07-14T20:44:17.593Z,3.00
2018-07-14T20:46:45.768Z,3.80
2018-07-14T20:49:13.990Z,3.03
2018-07-14T20:51:42.201Z,3.03
2018-07-14T20:54:10.547Z,3.97
2018-07-14T20:56:38.745Z,3.47
2018-07-14T20:59:06.984Z,3.00
2018-07-14T21:01:36.048Z,3.53
2018-07-14T21:04:04.322Z,3.00
2018-07-14T21:06:32.533Z,3.93
2018-07-14T21:09:00.763Z,3.40
2018-07-14T21:11:28.964Z,3.00
2018-07-14T21:13:57.187Z,3.37
2018-07-14T21:16:25.530Z,3.00
2018-07-14T21:18:53.722Z,4.17
2018-07-14T21:21:22.040Z,3.90
2018-07-14T21:23:50.126Z,5.17
2018-07-14T21:26:18.566Z,3.80
2018-07-14T21:28:46.883Z,4.17
2018-07-14T21:31:15.190Z,3.37
2018-07-14T21:33:43.386Z,5.47
2018-07-14T21:36:11.646Z,4.27
2018-07-14T21:38:39.932Z,3.60
2018-07-14T21:41:08.109Z,3.40
2018-07-14T21:43:36.358Z,4.80
2018-07-14T21:46:04.735Z,3.43
2018-07-14T21:48:32.959Z,3.10
2018-07-14T21:51:01.144Z,2.87
2018-07-14T21:53:29.418Z,3.40
2018-07-14T21:55:57.665Z,4.97
2018-07-14T21:58:25.860Z,3.53
2018-07-14T22:01:04.135Z,3.70
2018-07-14T22:03:33.058Z,3.73
2018-07-14T22:06:01.369Z,3.27
2018-07-14T22:08:29.635Z,4.67
2018-07-14T22:10:57.813Z,4.60
2018-07-14T22:13:26.009Z,3.03
2018-07-14T22:15:54.289Z,4.07
2018-07-14T22:18:22.496Z,3.73
2018-07-14T22:20:50.798Z,4.37
2018-07-14T22:23:19.110Z,3.70
2018-07-14T22:25:48.127Z,2.63
2018-07-14T22:28:16.323Z,2.27
2018-07-14T22:30:44.590Z,7.10
2018-07-14T22:33:12.845Z,10.40
2018-07-14T22:35:41.091Z,4.00
2018-07-14T22:38:09.343Z,2.83
2018-07-14T22:40:37.634Z,3.00
2018-07-14T22:43:05.963Z,2.57
2018-07-14T22:45:34.114Z,7.00
2018-07-14T22:48:02.388Z,2.53
2018-07-14T22:50:30.682Z,3.20
2018-07-14T22:52:58.965Z,12.27
2018-07-14T22:55:27.296Z,2.80
2018-07-14T22:57:55.481Z,2.20
2018-07-14T23:00:23.743Z,2.50
2018-07-14T23:02:51.901Z,2.40
2018-07-14T23:05:20.095Z,3.50
2018-07-14T23:07:48.455Z,4.27
2018-07-14T23:10:16.918Z,4.67
2018-07-14T23:12:45.095Z,3.23
2018-07-14T23:15:13.320Z,2.80
2018-07-14T23:17:41.477Z,3.40
2018-07-14T23:20:09.705Z,3.92
2018-07-14T23:22:37.972Z,2.50
2018-07-14T23:25:06.172Z,3.00
2018-07-14T23:27:34.475Z,3.03
2018-07-14T23:30:02.875Z,2.70
2018-07-14T23:32:31.108Z,3.40
2018-07-14T23:34:59.305Z,2.43
2018-07-14T23:37:28.353Z,2.43
2018-07-14T23:39:56.662Z,3.73
2018-07-14T23:42:24.863Z,4.07
2018-07-14T23:44:53.105Z,3.00
2018-07-14T23:47:21.383Z,2.70
2018-07-14T23:49:49.630Z,2.90
2018-07-14T23:52:17.893Z,3.57
2018-07-14T23:54:46.123Z,3.10
2018-07-14T23:57:14.586Z,5.97
2018-07-14T23:59:42.709Z,3.17
